createdAt,value
2018-10-12T00:02:15.148Z,16.31
2018-10-12T00:04:45.429Z,16.02
2018-10-12T00:07:15.676Z,16.43
2018-10-12T00:09:46.345Z,17.06
2018-10-12T00:12:16.863Z,17.02
2018-10-12T00:14:47.400Z,16.92
2018-10-12T00:17:17.980Z,16.56
2018-10-12T00:19:48.629Z,16.25
2018-10-12T00:22:19.396Z,16.11
2018-10-12T00:24:50.254Z,16.34
2018-10-12T00:27:20.806Z,16.60
2018-10-12T00:29:51.041Z,16.90
2018-10-12T00:32:21.584Z,17.24
2018-10-12T00:34:52.147Z,17.47
2018-10-12T00:37:23.126Z,17.30
2018-10-12T00:39:53.382Z,17.56
2018-10-12T00:42:23.903Z,17.82
2018-10-12T00:44:54.462Z,17.95
2018-10-12T00:47:25.504Z,18.10
2018-10-12T00:49:56.141Z,18.18
2018-10-12T00:52:27.046Z,18.07
2018-10-12T00:54:57.813Z,17.49
2018-10-12T00:57:28.341Z,16.48
2018-10-12T00:59:58.768Z,15.69
2018-10-12T01:02:29.267Z,15.63
2018-10-12T01:04:59.851Z,15.64
2018-10-12T01:07:30.117Z,15.82
2018-10-12T01:10:00.446Z,15.63
2018-10-12T01:12:34.316Z,15.67
2018-10-12T01:15:05.302Z,15.56
2018-10-12T01:17:36.876Z,15.55
2018-10-12T01:20:07.625Z,15.93
2018-10-12T01:22:38.221Z,16.34
2018-10-12T01:25:09.289Z,16.72
2018-10-12T01:27:40.001Z,17.00
2018-10-12T01:30:10.816Z,17.29
2018-10-12T01:32:46.380Z,17.01
2018-10-12T01:35:17.173Z,16.71
2018-10-12T01:37:48.209Z,16.90
2018-10-12T01:40:18.842Z,16.76
2018-10-12T01:42:49.642Z,16.76
2018-10-12T01:45:19.945Z,16.91
2018-10-12T01:47:50.481Z,17.05
2018-10-12T01:50:21.020Z,17.08
2018-10-12T01:52:51.597Z,17.42
2018-10-12T01:55:22.652Z,17.46
2018-10-12T01:57:52.916Z,17.76
2018-10-12T02:00:23.220Z,17.80
2018-10-12T02:02:54.587Z,17.73
2018-10-12T02:05:25.008Z,17.54
2018-10-12T02:07:55.790Z,17.44
2018-10-12T02:10:26.352Z,17.30
2018-10-12T02:12:56.927Z,17.31
2018-10-12T02:15:28.041Z,17.47
2018-10-12T02:17:58.620Z,17.45
2018-10-12T02:20:29.148Z,17.02
2018-10-12T02:22:59.717Z,16.48
2018-10-12T02:25:29.961Z,16.77
2018-10-12T02:28:00.488Z,16.79
2018-10-12T02:30:30.918Z,16.64
2018-10-12T02:33:01.492Z,16.71
2018-10-12T02:35:32.856Z,16.99
2018-10-12T02:38:03.365Z,17.00
2018-10-12T02:40:34.203Z,17.24
2018-10-12T02:43:04.509Z,17.35
2018-10-12T02:45:34.746Z,17.15
2018-10-12T02:48:05.561Z,17.03
2018-10-12T02:50:35.821Z,17.39
2018-10-12T02:53:06.913Z,17.63
2018-10-12T02:55:37.200Z,17.17
2018-10-12T02:58:07.813Z,17.35
2018-10-12T03:00:38.416Z,17.48
2018-10-12T03:03:09.033Z,17.27
2018-10-12T03:05:39.624Z,17.18
2018-10-12T03:08:09.918Z,17.10
2018-10-12T03:10:40.476Z,16.56
2018-10-12T03:13:12.409Z,16.68
2018-10-12T03:15:42.686Z,17.24
2018-10-12T03:18:13.269Z,16.86
2018-10-12T03:20:43.954Z,16.60
2018-10-12T03:23:14.193Z,16.66
2018-10-12T03:25:44.765Z,17.04
2018-10-12T03:28:23.227Z,17.29
2018-10-12T03:30:53.816Z,17.28
2018-10-12T03:33:24.377Z,17.23
2018-10-12T03:35:54.664Z,17.14
2018-10-12T03:38:25.301Z,16.72
2018-10-12T03:40:55.892Z,16.91
2018-10-12T03:43:26.775Z,17.00
2018-10-12T03:45:57.044Z,16.98
2018-10-12T03:48:27.837Z,17.39
2018-10-12T03:50:58.671Z,17.38
2018-10-12T03:53:29.270Z,17.37
2018-10-12T03:55:59.625Z,17.14
2018-10-12T03:58:30.013Z,16.54
2018-10-12T04:01:00.313Z,16.83
2018-10-12T04:03:30.970Z,16.81
2018-10-12T04:06:01.357Z,16.75
2018-10-12T04:08:31.754Z,16.92
2018-10-12T04:11:01.988Z,16.88
2018-10-12T04:13:32.209Z,16.77
2018-10-12T04:16:02.712Z,17.04
2018-10-12T04:18:33.209Z,17.23
2018-10-12T04:21:03.738Z,16.93
2018-10-12T04:23:34.277Z,16.98
2018-10-12T04:26:05.140Z,16.67
2018-10-12T04:28:35.958Z,16.48
2018-10-12T04:31:07.057Z,16.21
2018-10-12T04:33:37.547Z,15.91
2018-10-12T04:36:08.240Z,15.83
2018-10-12T04:40:51.525Z,16.10
2018-10-12T04:43:21.940Z,15.62
2018-10-12T04:45:52.496Z,15.60
2018-10-12T04:48:23.318Z,15.28
2018-10-12T04:50:54.144Z,15.08
2018-10-12T04:53:24.653Z,14.99
2018-10-12T04:55:55.206Z,15.04
2018-10-12T04:58:26.318Z,15.07
2018-10-12T05:00:56.955Z,14.91
2018-10-12T05:03:27.405Z,15.12
2018-10-12T05:05:57.928Z,15.20
2018-10-12T05:08:28.740Z,15.27
2018-10-12T05:11:00.999Z,14.89
2018-10-12T05:13:35.744Z,14.83
2018-10-12T05:16:07.057Z,14.72
2018-10-12T05:18:38.480Z,14.92
2018-10-12T05:21:08.786Z,15.17
2018-10-12T05:23:39.636Z,15.28
2018-10-12T05:26:10.236Z,15.37
2018-10-12T05:28:40.697Z,15.42
2018-10-12T05:31:12.007Z,15.49
2018-10-12T05:33:42.529Z,15.64
2018-10-12T05:36:13.291Z,15.20
2018-10-12T05:38:43.652Z,15.04
2018-10-12T05:41:14.175Z,15.04
2018-10-12T05:43:44.854Z,15.13
2018-10-12T05:46:15.520Z,15.02
2018-10-12T05:48:57.429Z,15.11
2018-10-12T05:51:28.022Z,14.88
2018-10-12T05:53:58.891Z,15.15
2018-10-12T05:56:31.033Z,15.25
2018-10-12T05:59:02.371Z,15.40
2018-10-12T06:01:32.912Z,15.59
2018-10-12T06:04:03.180Z,15.68
2018-10-12T06:06:33.445Z,15.72
2018-10-12T06:09:05.074Z,15.73
2018-10-12T06:11:35.684Z,15.33
2018-10-12T06:14:06.828Z,15.51
2018-10-12T06:16:37.466Z,15.08
2018-10-12T06:19:08.192Z,15.20
2018-10-12T06:21:38.837Z,14.81
2018-10-12T06:24:09.549Z,14.76
2018-10-12T06:26:40.406Z,14.96
2018-10-12T06:29:12.199Z,15.51
2018-10-12T06:31:43.153Z,15.84
2018-10-12T06:34:13.685Z,16.08
2018-10-12T06:36:44.625Z,16.29
2018-10-12T06:39:15.150Z,16.59
2018-10-12T06:41:46.524Z,16.55
2018-10-12T06:44:17.222Z,16.84
2018-10-12T06:46:48.204Z,16.87
2018-10-12T06:49:18.913Z,17.25
2018-10-12T06:51:49.592Z,17.51
2018-10-12T06:54:20.165Z,17.56
2018-10-12T06:56:50.761Z,17.85
2018-10-12T06:59:21.769Z,17.79
2018-10-12T07:01:52.501Z,17.75
2018-10-12T07:04:23.044Z,17.64
2018-10-12T07:06:53.842Z,17.66
2018-10-12T07:09:24.386Z,17.54
2018-10-12T07:11:55.006Z,17.72
2018-10-12T07:14:25.670Z,17.52
2018-10-12T07:16:56.378Z,17.60
2018-10-12T07:19:27.074Z,17.95
2018-10-12T07:21:58.823Z,18.10
2018-10-12T07:24:29.579Z,18.61
2018-10-12T07:27:00.171Z,18.48
2018-10-12T07:29:30.718Z,18.48
2018-10-12T07:32:01.241Z,17.92
2018-10-12T07:34:31.573Z,17.72
2018-10-12T07:37:02.219Z,17.77
2018-10-12T07:39:32.963Z,17.33
2018-10-12T07:42:03.574Z,17.45
2018-10-12T07:44:34.226Z,17.25
2018-10-12T07:47:04.901Z,18.47
2018-10-12T07:49:35.578Z,19.13
2018-10-12T07:52:06.083Z,19.31
2018-10-12T07:54:36.938Z,19.36
2018-10-12T07:57:13.582Z,19.54
2018-10-12T07:59:45.090Z,19.42
2018-10-12T08:02:15.975Z,19.88
2018-10-12T08:04:46.517Z,19.98
2018-10-12T08:07:17.610Z,19.86
2018-10-12T08:09:47.953Z,20.38
2018-10-12T08:12:18.629Z,20.76
2018-10-12T08:14:49.152Z,20.65
2018-10-12T08:17:19.756Z,20.38
2018-10-12T08:19:50.225Z,20.45
2018-10-12T08:22:20.816Z,20.78
2018-10-12T08:24:51.078Z,20.50
2018-10-12T08:27:21.439Z,20.22
2018-10-12T08:29:52.022Z,20.60
2018-10-12T08:32:22.665Z,20.84
2018-10-12T08:34:53.198Z,20.58
2018-10-12T08:37:23.819Z,20.97
2018-10-12T08:39:54.336Z,21.39
2018-10-12T08:42:24.864Z,21.41
2018-10-12T08:44:55.441Z,21.23
2018-10-12T08:47:26.018Z,21.61
2018-10-12T08:49:56.560Z,21.02
2018-10-12T08:52:27.407Z,21.71
2018-10-12T08:54:58.358Z,22.16
2018-10-12T08:57:28.940Z,22.59
2018-10-12T08:59:59.329Z,22.76
2018-10-12T09:02:30.100Z,23.12
2018-10-12T09:05:00.707Z,24.71
2018-10-12T09:07:31.057Z,28.67
2018-10-12T09:10:01.514Z,31.27
2018-10-12T09:12:32.261Z,32.96
2018-10-12T09:15:02.850Z,31.06
2018-10-12T09:17:33.420Z,32.70
2018-10-12T09:20:04.383Z,30.49
2018-10-12T09:22:35.167Z,33.28
2018-10-12T09:25:06.269Z,34.64
2018-10-12T09:27:36.731Z,33.53
2018-10-12T09:30:07.599Z,35.52
2018-10-12T09:32:38.525Z,34.63
2018-10-12T09:35:09.484Z,34.58
2018-10-12T09:37:39.805Z,33.81
2018-10-12T09:40:10.045Z,33.44
2018-10-12T09:42:40.630Z,33.36
2018-10-12T09:45:13.461Z,34.22
2018-10-12T09:47:44.002Z,34.46
2018-10-12T09:50:14.891Z,33.51
2018-10-12T09:52:45.615Z,31.93
2018-10-12T09:55:17.136Z,32.83
2018-10-12T09:57:47.677Z,33.22
2018-10-12T10:00:23.304Z,34.00
2018-10-12T10:02:59.398Z,33.63
2018-10-12T10:05:29.992Z,34.09
2018-10-12T10:08:00.403Z,33.69
2018-10-12T10:10:31.598Z,35.15
2018-10-12T10:13:05.188Z,35.16
2018-10-12T10:15:36.315Z,34.43
2018-10-12T10:18:07.558Z,33.42
2018-10-12T10:20:38.099Z,32.54
2018-10-12T10:23:10.514Z,33.67
2018-10-12T10:25:41.191Z,33.96
2018-10-12T10:28:11.513Z,32.73
2018-10-12T10:30:41.813Z,34.11
2018-10-12T10:33:16.455Z,33.81
2018-10-12T10:35:47.029Z,29.80
2018-10-12T10:38:17.632Z,29.40
2018-10-12T10:40:48.919Z,28.02
2018-10-12T10:43:19.529Z,27.66
2018-10-12T10:45:50.321Z,27.50
2018-10-12T10:48:20.625Z,27.27
2018-10-12T10:50:51.031Z,26.65
2018-10-12T10:53:21.636Z,26.52
2018-10-12T10:55:52.530Z,26.57
2018-10-12T10:58:23.339Z,26.65
2018-10-12T11:00:54.021Z,26.59
2018-10-12T11:03:25.392Z,26.59
2018-10-12T11:05:56.169Z,26.30
2018-10-12T11:08:26.764Z,26.48
2018-10-12T11:10:57.511Z,26.45
2018-10-12T11:13:28.290Z,26.61
2018-10-12T11:15:59.158Z,26.55
2018-10-12T11:18:29.817Z,26.64
2018-10-12T11:21:00.552Z,26.08
2018-10-12T11:23:31.283Z,26.02
2018-10-12T11:26:01.980Z,26.40
2018-10-12T11:28:32.325Z,26.62
2018-10-12T11:31:03.283Z,27.00
2018-10-12T11:33:34.498Z,27.06
2018-10-12T11:36:05.219Z,27.29
2018-10-12T11:38:35.792Z,27.98
2018-10-12T11:41:07.078Z,27.82
2018-10-12T11:43:39.641Z,27.53
2018-10-12T11:46:10.839Z,27.66
2018-10-12T11:48:41.611Z,27.42
2018-10-12T11:51:13.117Z,27.55
2018-10-12T11:53:43.845Z,27.67
2018-10-12T11:56:14.487Z,27.80
2018-10-12T11:58:45.020Z,27.82
2018-10-12T12:01:15.859Z,27.73
2018-10-12T12:03:46.425Z,27.75
2018-10-12T12:06:16.824Z,28.14
2018-10-12T12:08:47.387Z,27.59
2018-10-12T12:11:18.082Z,28.11
2018-10-12T12:13:49.011Z,27.90
2018-10-12T12:16:19.840Z,27.36
2018-10-12T12:18:50.267Z,27.80
2018-10-12T12:21:21.057Z,28.04
2018-10-12T12:23:51.771Z,28.03
2018-10-12T12:26:22.889Z,28.57
2018-10-12T12:28:53.215Z,28.53
2018-10-12T12:31:23.948Z,28.26
2018-10-12T12:33:54.456Z,27.81
2018-10-12T12:36:25.216Z,27.89
2018-10-12T12:38:55.739Z,26.38
2018-10-12T12:41:26.367Z,27.21
2018-10-12T12:43:57.095Z,27.72
2018-10-12T12:46:27.892Z,27.73
2018-10-12T12:48:58.831Z,27.79
2018-10-12T12:51:28.957Z,27.71
2018-10-12T12:53:59.536Z,27.48
2018-10-12T12:56:29.968Z,27.69
2018-10-12T12:59:00.273Z,27.73
2018-10-12T13:01:30.729Z,27.73
2018-10-12T13:04:01.488Z,27.78
2018-10-12T13:06:31.867Z,27.99
2018-10-12T13:09:02.656Z,28.00
2018-10-12T13:11:33.188Z,27.88
2018-10-12T13:14:04.001Z,27.79
2018-10-12T13:16:34.544Z,28.05
2018-10-12T13:19:04.886Z,27.76
2018-10-12T13:21:35.273Z,27.48
2018-10-12T13:24:05.822Z,27.70
2018-10-12T13:26:36.380Z,27.73
2018-10-12T13:29:08.044Z,27.77
2018-10-12T13:31:38.644Z,27.77
2018-10-12T13:34:09.281Z,27.47
2018-10-12T13:36:39.545Z,27.73
2018-10-12T13:39:11.640Z,27.54
2018-10-12T13:41:42.006Z,27.62
2018-10-12T13:44:12.528Z,27.62
2018-10-12T13:46:43.419Z,27.36
2018-10-12T13:49:15.130Z,26.96
2018-10-12T13:51:45.743Z,26.68
2018-10-12T13:54:16.785Z,26.68
2018-10-12T13:56:47.580Z,26.92
2018-10-12T13:59:18.136Z,26.59
2018-10-12T14:01:48.978Z,26.78
2018-10-12T14:04:19.487Z,25.97
2018-10-12T14:06:50.229Z,25.89
2018-10-12T14:09:20.744Z,26.18
2018-10-12T14:11:50.981Z,26.25
2018-10-12T14:14:21.513Z,26.28
2018-10-12T14:16:51.860Z,26.07
2018-10-12T14:19:22.588Z,25.88
2018-10-12T14:21:53.241Z,25.73
2018-10-12T14:24:24.001Z,25.78
2018-10-12T14:26:54.642Z,25.68
2018-10-12T14:29:25.404Z,25.89
2018-10-12T14:31:56.168Z,25.63
2018-10-12T14:34:26.789Z,25.53
2018-10-12T14:36:57.586Z,25.45
2018-10-12T14:39:28.156Z,25.21
2018-10-12T14:41:58.953Z,25.06
2018-10-12T14:44:29.524Z,24.83
2018-10-12T14:47:00.102Z,24.76
2018-10-12T14:49:30.665Z,24.76
2018-10-12T14:52:01.372Z,24.63
2018-10-12T14:54:31.661Z,24.36
2018-10-12T14:57:01.999Z,24.30
2018-10-12T14:59:32.363Z,24.60
2018-10-12T15:02:02.917Z,24.26
2018-10-12T15:04:33.434Z,23.93
2018-10-12T15:07:03.968Z,23.76
2018-10-12T15:09:34.832Z,23.83
2018-10-12T15:12:05.372Z,23.96
2018-10-12T15:14:47.104Z,23.90
2018-10-12T15:17:17.930Z,23.83
2018-10-12T15:19:48.753Z,23.83
2018-10-12T15:22:19.541Z,23.67
2018-10-12T15:24:50.290Z,23.54
2018-10-12T15:27:20.954Z,23.29
2018-10-12T15:29:51.714Z,23.15
2018-10-12T15:32:22.245Z,23.33
2018-10-12T15:34:53.035Z,23.34
2018-10-12T15:37:23.944Z,23.22
2018-10-12T15:39:54.724Z,23.28
2018-10-12T15:42:24.987Z,23.31
2018-10-12T15:44:55.453Z,23.19
2018-10-12T15:47:27.190Z,23.00
2018-10-12T15:49:57.731Z,23.00
2018-10-12T15:52:28.303Z,22.89
2018-10-12T15:54:59.168Z,23.02
2018-10-12T15:57:31.110Z,23.01
2018-10-12T16:00:01.413Z,22.89
2018-10-12T16:02:32.225Z,22.75
2018-10-12T16:05:02.596Z,22.65
2018-10-12T16:07:33.384Z,22.77
2018-10-12T16:10:04.004Z,22.59
2018-10-12T16:12:35.010Z,22.32
2018-10-12T16:15:05.924Z,22.29
2018-10-12T16:17:36.513Z,22.21
2018-10-12T16:20:07.177Z,22.30
2018-10-12T16:22:37.792Z,22.22
2018-10-12T16:25:19.589Z,22.09
2018-10-12T16:27:50.433Z,22.14
2018-10-12T16:30:20.657Z,22.02
2018-10-12T16:32:51.193Z,21.98
2018-10-12T16:35:21.752Z,21.83
2018-10-12T16:37:52.578Z,21.77
2018-10-12T16:40:22.836Z,21.75
2018-10-12T16:42:53.380Z,21.78
2018-10-12T16:45:23.945Z,21.94
2018-10-12T16:47:54.560Z,22.15
2018-10-12T16:50:25.371Z,22.07
2018-10-12T16:52:55.896Z,21.91
2018-10-12T16:55:26.438Z,21.76
2018-10-12T16:57:57.086Z,21.76
2018-10-12T17:00:27.810Z,21.63
2018-10-12T17:02:58.329Z,21.76
2018-10-12T17:05:29.443Z,21.81
2018-10-12T17:08:00.714Z,21.46
2018-10-12T17:10:31.929Z,21.46
2018-10-12T17:13:02.596Z,21.43
2018-10-12T17:15:32.986Z,21.39
2018-10-12T17:18:03.574Z,21.37
2018-10-12T17:20:34.354Z,21.39
2018-10-12T17:23:04.975Z,21.52
2018-10-12T17:25:35.714Z,21.33
2018-10-12T17:28:06.390Z,21.14
2018-10-12T17:30:37.079Z,20.94
2018-10-12T17:33:07.893Z,20.93
2018-10-12T17:35:38.468Z,20.89
2018-10-12T17:38:08.724Z,20.67
2018-10-12T17:40:39.492Z,20.65
2018-10-12T17:43:10.605Z,20.83
2018-10-12T17:45:41.073Z,20.72
2018-10-12T17:48:11.674Z,20.65
2018-10-12T17:50:42.240Z,20.98
2018-10-12T17:53:14.789Z,21.22
2018-10-12T17:55:45.317Z,21.16
2018-10-12T17:58:15.848Z,20.96
2018-10-12T18:00:46.398Z,20.87
2018-10-12T18:03:17.026Z,20.22
2018-10-12T18:05:47.445Z,20.64
2018-10-12T18:08:17.997Z,20.78
2018-10-12T18:10:48.557Z,20.95
2018-10-12T18:13:19.307Z,21.13
2018-10-12T18:15:49.855Z,21.11
2018-10-12T18:18:20.512Z,21.19
2018-10-12T18:20:51.054Z,21.03
2018-10-12T18:23:21.302Z,20.92
2018-10-12T18:25:52.415Z,20.76
2018-10-12T18:28:22.836Z,20.72
2018-10-12T18:30:53.442Z,20.63
2018-10-12T18:33:24.016Z,20.65
2018-10-12T18:35:54.849Z,20.64
2018-10-12T18:38:25.723Z,20.45
2018-10-12T18:40:56.273Z,20.48
2018-10-12T18:43:27.034Z,20.35
2018-10-12T18:45:57.595Z,20.45
2018-10-12T18:48:28.173Z,20.19
2018-10-12T18:50:59.072Z,20.17
2018-10-12T18:53:29.509Z,20.14
2018-10-12T18:56:00.086Z,20.15
2018-10-12T18:58:30.551Z,19.95
2018-10-12T19:01:01.410Z,19.84
2018-10-12T19:03:32.199Z,19.96
2018-10-12T19:06:02.754Z,19.90
2018-10-12T19:08:33.412Z,19.86
2018-10-12T19:11:04.081Z,19.88
2018-10-12T19:13:34.421Z,19.93
2018-10-12T19:16:05.161Z,19.75
2018-10-12T19:18:35.720Z,19.40
2018-10-12T19:21:06.428Z,19.19
2018-10-12T19:23:38.166Z,19.23
2018-10-12T19:26:09.876Z,19.07
2018-10-12T19:28:40.304Z,18.99
2018-10-12T19:31:12.100Z,18.94
2018-10-12T19:33:57.456Z,18.81
2018-10-12T19:36:28.141Z,19.02
2018-10-12T19:38:58.802Z,19.24
2018-10-12T19:41:29.372Z,19.20
2018-10-12T19:43:59.738Z,19.08
2018-10-12T19:46:30.061Z,18.95
2018-10-12T19:49:00.812Z,19.19
2018-10-12T19:51:31.312Z,19.50
2018-10-12T19:54:02.101Z,19.59
2018-10-12T19:56:32.338Z,19.04
2018-10-12T19:59:02.926Z,18.61
2018-10-12T20:01:33.681Z,18.64
2018-10-12T20:04:04.147Z,19.22
2018-10-12T20:06:34.798Z,19.52
2018-10-12T20:09:07.184Z,19.17
2018-10-12T20:11:37.460Z,18.78
2018-10-12T20:14:08.237Z,18.65
2018-10-12T20:16:39.021Z,18.77
2018-10-12T20:19:09.825Z,19.01
2018-10-12T20:21:40.134Z,18.93
2018-10-12T20:24:10.666Z,19.05
2018-10-12T20:26:41.201Z,18.37
2018-10-12T20:29:26.542Z,18.11
2018-10-12T20:31:57.270Z,17.87
2018-10-12T20:34:27.865Z,17.73
2018-10-12T20:36:58.485Z,17.72
2018-10-12T20:39:29.202Z,17.87
2018-10-12T20:41:59.485Z,17.93
2018-10-12T20:44:29.944Z,18.12
2018-10-12T20:47:00.212Z,18.41
2018-10-12T20:49:30.701Z,18.48
2018-10-12T20:52:01.230Z,18.46
2018-10-12T20:54:31.753Z,18.27
2018-10-12T20:57:02.377Z,17.99
2018-10-12T20:59:33.137Z,17.71
2018-10-12T21:02:03.685Z,17.83
2018-10-12T21:04:34.267Z,17.68
2018-10-12T21:07:04.821Z,17.65
2018-10-12T21:09:35.129Z,17.91
2018-10-12T21:12:05.485Z,18.17
2018-10-12T21:14:35.816Z,18.00
2018-10-12T21:17:06.648Z,17.82
2018-10-12T21:19:37.014Z,17.56
2018-10-12T21:22:07.903Z,17.24
2018-10-12T21:24:38.420Z,16.98
2018-10-12T21:27:09.113Z,16.95
2018-10-12T21:29:39.654Z,16.80
2018-10-12T21:32:09.905Z,16.92
2018-10-12T21:34:40.183Z,16.85
2018-10-12T21:37:11.990Z,16.99
2018-10-12T21:39:42.542Z,17.11
2018-10-12T21:42:13.360Z,17.08
2018-10-12T21:44:44.192Z,17.00
2018-10-12T21:47:15.058Z,16.74
2018-10-12T21:49:45.293Z,16.81
2018-10-12T21:52:16.113Z,16.69
2018-10-12T21:54:46.643Z,16.81
2018-10-12T21:57:17.175Z,16.59
2018-10-12T21:59:47.740Z,16.77
2018-10-12T22:02:18.270Z,16.83
2018-10-12T22:04:48.533Z,16.76
2018-10-12T22:07:18.843Z,16.66
2018-10-12T22:09:49.350Z,16.67
2018-10-12T22:12:19.609Z,16.61
2018-10-12T22:14:49.853Z,16.19
2018-10-12T22:17:20.468Z,16.86
2018-10-12T22:19:51.009Z,16.58
2018-10-12T22:22:21.541Z,16.09
2018-10-12T22:24:52.633Z,16.08
2018-10-12T22:27:23.113Z,16.29
2018-10-12T22:29:54.008Z,16.46
2018-10-12T22:32:24.586Z,16.70
2018-10-12T22:34:54.835Z,16.95
2018-10-12T22:37:25.488Z,17.16
2018-10-12T22:39:56.181Z,17.31
2018-10-12T22:42:26.997Z,17.37
2018-10-12T22:44:57.576Z,17.23
2018-10-12T22:47:27.852Z,17.22
2018-10-12T22:49:58.922Z,17.06
2018-10-12T22:52:29.732Z,16.96
2018-10-12T22:55:00.270Z,17.03
2018-10-12T22:57:30.798Z,17.22
2018-10-12T23:00:01.057Z,17.35
2018-10-12T23:02:31.354Z,16.81
2018-10-12T23:05:01.765Z,16.50
2018-10-12T23:07:32.128Z,15.84
2018-10-12T23:10:02.658Z,15.91
2018-10-12T23:12:33.072Z,16.22
2018-10-12T23:15:03.577Z,16.16
2018-10-12T23:17:34.253Z,16.41
2018-10-12T23:20:05.255Z,16.67
2018-10-12T23:22:35.488Z,16.81
2018-10-12T23:25:06.055Z,16.62
2018-10-12T23:27:36.673Z,16.57
2018-10-12T23:30:08.499Z,16.35
2018-10-12T23:32:38.827Z,16.21
2018-10-12T23:35:09.688Z,16.04
2018-10-12T23:37:39.942Z,15.91
2018-10-12T23:40:10.442Z,15.34
2018-10-12T23:42:41.295Z,14.77
2018-10-12T23:45:12.049Z,14.53
2018-10-12T23:47:42.618Z,15.20
2018-10-12T23:50:12.878Z,14.77
2018-10-12T23:52:43.444Z,14.10
2018-10-12T23:55:13.717Z,13.89
2018-10-12T23:57:44.562Z,14.33
